Time;durP1;ratioP1;P1;durP2;ratioP2;P2;SDS_P1;SDS_P2;PMS_P1;PMS_P2;Temp;Humidity;BMP_temperature;BMP_pressure;BME280_temperature;BME280_humidity;BME280_pressure;Samples;Min_cycle;Max_cycle;Signal;HPM_P1;HPM_P2
2023/09/26 00:01:43;;;;;;;6.57;4.38;;;16.00;99.90;;;;;;5092503;28;20051;-65
2023/09/26 00:04:10;;;;;;;6.10;4.30;;;16.00;99.90;;;;;;5097449;28;20544;-65
2023/09/26 00:06:38;;;;;;;6.95;4.50;;;15.90;99.90;;;;;;5100160;28;20052;-65
2023/09/26 00:09:07;;;;;;;6.15;4.65;;;16.00;99.90;;;;;;5099884;28;20062;-65
2023/09/26 00:11:34;;;;;;;6.35;4.45;;;15.90;99.90;;;;;;5099360;28;20040;-65
2023/09/26 00:14:04;;;;;;;6.78;4.00;;;16.00;99.90;;;;;;5099896;28;20491;-64
2023/09/26 00:16:31;;;;;;;8.07;4.85;;;15.90;99.90;;;;;;5100101;28;20047;-65
2023/09/26 00:18:58;;;;;;;6.80;4.22;;;16.00;99.90;;;;;;5100393;28;20044;-65
2023/09/26 00:21:25;;;;;;;8.55;4.90;;;16.00;99.90;;;;;;5100798;28;20055;-65
2023/09/26 00:23:52;;;;;;;7.30;4.40;;;15.90;99.90;;;;;;5100409;28;20043;-65
2023/09/26 00:26:19;;;;;;;7.78;4.53;;;15.90;99.90;;;;;;5100231;28;20044;-65
2023/09/26 00:28:46;;;;;;;6.63;4.53;;;15.90;99.90;;;;;;5100639;28;20130;-65
2023/09/26 00:31:16;;;;;;;8.63;4.65;;;15.90;99.90;;;;;;5119013;28;20050;-65
2023/09/26 00:33:43;;;;;;;7.85;5.15;;;15.90;99.90;;;;;;5100128;28;20071;-65
2023/09/26 00:36:11;;;;;;;6.63;4.97;;;15.80;99.90;;;;;;5100555;28;20040;-65
2023/09/26 00:38:38;;;;;;;7.75;4.60;;;15.70;99.90;;;;;;5118654;28;20040;-65
2023/09/26 00:41:06;;;;;;;8.45;4.90;;;15.70;99.90;;;;;;5100160;28;20047;-65
2023/09/26 00:43:35;;;;;;;6.63;4.80;;;15.70;99.90;;;;;;5118656;28;20044;-65
2023/09/26 00:46:04;;;;;;;7.90;4.90;;;15.70;99.90;;;;;;5100333;28;20047;-65
2023/09/26 00:48:32;;;;;;;7.15;5.10;;;15.60;99.90;;;;;;5117947;28;20097;-65
2023/09/26 00:51:00;;;;;;;21.92;4.53;;;15.60;99.90;;;;;;5100283;28;20048;-64
2023/09/26 00:53:29;;;;;;;6.78;4.60;;;15.60;99.90;;;;;;5100688;28;20067;-65
2023/09/26 00:55:58;;;;;;;6.65;4.43;;;15.50;99.90;;;;;;5099629;28;20051;-65
2023/09/26 00:58:26;;;;;;;9.50;4.85;;;15.50;99.90;;;;;;5100717;28;20410;-65
2023/09/26 01:00:53;;;;;;;6.72;4.70;;;15.40;99.90;;;;;;5098682;28;20044;-65
2023/09/26 01:03:21;;;;;;;10.70;4.65;;;15.40;99.90;;;;;;5099841;28;20043;-65
2023/09/26 01:05:50;;;;;;;9.02;4.90;;;15.40;99.90;;;;;;5100908;28;20043;-65
2023/09/26 01:08:17;;;;;;;6.75;4.32;;;15.30;99.90;;;;;;5099923;28;20406;-65
2023/09/26 01:10:45;;;;;;;6.03;4.30;;;15.30;99.90;;;;;;5100555;28;20491;-65
2023/09/26 01:13:12;;;;;;;8.63;5.20;;;15.20;99.90;;;;;;5100519;28;20227;-65
2023/09/26 01:15:41;;;;;;;10.27;5.25;;;15.20;99.90;;;;;;5097443;28;20092;-65
2023/09/26 01:18:09;;;;;;;6.43;5.07;;;15.10;99.90;;;;;;5097337;28;20044;-65
2023/09/26 01:20:38;;;;;;;8.48;4.63;;;15.10;99.90;;;;;;5096923;28;20092;-65
2023/09/26 01:23:07;;;;;;;6.68;5.00;;;15.00;99.90;;;;;;5096804;28;20043;-64
2023/09/26 01:25:36;;;;;;;6.70;4.55;;;15.00;99.90;;;;;;5096729;28;20047;-64
2023/09/26 01:28:07;;;;;;;6.78;4.10;;;14.90;99.90;;;;;;5114864;28;21297;-64
2023/09/26 01:30:34;;;;;;;7.25;5.07;;;14.80;99.90;;;;;;5096297;28;20493;-64
2023/09/26 01:33:01;;;;;;;6.22;4.53;;;14.70;99.90;;;;;;5096869;28;20105;-65
2023/09/26 01:35:28;;;;;;;6.57;5.07;;;14.70;99.90;;;;;;5096601;28;20048;-65
2023/09/26 01:37:55;;;;;;;7.10;4.68;;;14.70;99.90;;;;;;5096342;28;20402;-65
2023/09/26 01:40:22;;;;;;;7.55;4.53;;;14.60;99.90;;;;;;5096345;28;20140;-65
2023/09/26 01:42:51;;;;;;;7.50;5.07;;;14.60;99.90;;;;;;5096655;28;20657;-65
2023/09/26 01:45:18;;;;;;;10.90;5.00;;;14.60;99.90;;;;;;5095973;28;20047;-65
2023/09/26 01:47:47;;;;;;;8.15;4.97;;;14.60;99.90;;;;;;5096537;28;20070;-65
2023/09/26 01:50:14;;;;;;;9.13;4.90;;;14.60;99.90;;;;;;5092195;28;20404;-65
2023/09/26 01:52:41;;;;;;;6.50;4.50;;;14.60;99.90;;;;;;5094970;28;20531;-65
2023/09/26 01:55:11;;;;;;;11.73;4.72;;;14.50;99.90;;;;;;5094140;28;20166;-66
2023/09/26 01:57:38;;;;;;;7.18;4.35;;;14.50;99.90;;;;;;5095404;28;20059;-65
2023/09/26 02:00:10;;;;;;;5.32;4.63;;;14.50;99.90;;;;;;5114231;28;20050;-65
2023/09/26 02:02:38;;;;;;;7.22;4.60;;;14.40;99.90;;;;;;5114579;28;20123;-65
2023/09/26 02:05:06;;;;;;;6.90;4.43;;;14.40;99.90;;;;;;5095232;28;20047;-65
2023/09/26 02:07:33;;;;;;;5.97;4.10;;;14.40;99.90;;;;;;5114167;28;20039;-65
2023/09/26 02:09:59;;;;;;;7.80;4.10;;;14.30;99.90;;;;;;5095964;28;20059;-65
2023/09/26 02:12:26;;;;;;;6.65;4.25;;;14.30;99.90;;;;;;5095563;28;20548;-65
2023/09/26 02:14:53;;;;;;;6.97;4.15;;;14.20;99.90;;;;;;5095751;28;20052;-66
2023/09/26 02:17:22;;;;;;;5.55;4.25;;;14.10;99.90;;;;;;5095676;28;20058;-65
2023/09/26 02:19:48;;;;;;;7.72;4.40;;;14.00;99.90;;;;;;5095396;28;20066;-65
2023/09/26 02:22:16;;;;;;;5.50;4.30;;;14.00;99.90;;;;;;5094518;28;20101;-65
2023/09/26 02:24:43;;;;;;;6.13;4.38;;;13.90;99.90;;;;;;5095680;28;20049;-65
2023/09/26 02:27:10;;;;;;;9.98;4.90;;;13.90;99.90;;;;;;5093795;28;20039;-65
2023/09/26 02:29:37;;;;;;;6.32;3.92;;;13.80;99.90;;;;;;5111833;28;20071;-65
2023/09/26 02:32:04;;;;;;;7.28;4.50;;;13.80;99.90;;;;;;5113904;28;20414;-66
2023/09/26 02:34:33;;;;;;;8.18;5.13;;;13.80;99.90;;;;;;5093618;28;20044;-66
2023/09/26 02:36:59;;;;;;;7.95;5.18;;;13.80;99.90;;;;;;5095238;28;20055;-66
2023/09/26 02:39:26;;;;;;;7.63;4.85;;;13.80;99.90;;;;;;5096358;28;20052;-65
2023/09/26 02:41:53;;;;;;;10.25;5.32;;;13.80;99.90;;;;;;5090565;28;20052;-65
2023/09/26 02:44:20;;;;;;;9.20;5.22;;;13.80;99.90;;;;;;5113355;28;20059;-65
2023/09/26 02:46:47;;;;;;;9.50;5.45;;;13.70;99.90;;;;;;5094575;28;20093;-65
2023/09/26 02:49:14;;;;;;;7.40;5.00;;;13.70;99.90;;;;;;5113140;28;20039;-65
2023/09/26 02:51:42;;;;;;;8.05;5.13;;;13.70;99.90;;;;;;5093628;28;20047;-65
2023/09/26 02:54:09;;;;;;;7.22;5.32;;;13.70;99.90;;;;;;5094314;28;20040;-65
2023/09/26 02:56:36;;;;;;;6.28;4.90;;;13.70;99.90;;;;;;5094920;28;20047;-65
2023/09/26 02:59:03;;;;;;;7.95;5.35;;;13.80;99.90;;;;;;5092532;28;20051;-65
2023/09/26 03:01:30;;;;;;;6.82;5.53;;;13.70;99.90;;;;;;5094570;28;20096;-65
2023/09/26 03:03:57;;;;;;;6.22;4.53;;;13.70;99.90;;;;;;5090685;28;20044;-65
2023/09/26 03:06:24;;;;;;;11.80;5.80;;;13.70;99.90;;;;;;5094835;28;20048;-65
2023/09/26 03:08:52;;;;;;;7.18;5.07;;;13.70;99.90;;;;;;5094522;28;20047;-65
2023/09/26 03:11:19;;;;;;;8.90;5.20;;;13.70;99.90;;;;;;5094877;28;20043;-65
2023/09/26 03:13:46;;;;;;;6.40;4.88;;;13.70;99.90;;;;;;5094969;28;20479;-65
2023/09/26 03:16:14;;;;;;;8.38;5.25;;;13.70;99.90;;;;;;5094171;28;20055;-65
2023/09/26 03:18:41;;;;;;;9.98;5.88;;;13.70;99.90;;;;;;5094923;28;20479;-65
2023/09/26 03:21:08;;;;;;;7.97;4.72;;;13.70;99.90;;;;;;5094634;28;20047;-65
2023/09/26 03:23:35;;;;;;;6.85;5.30;;;13.60;99.90;;;;;;5092537;28;20104;-65
2023/09/26 03:26:10;;;;;;;8.20;6.00;;;13.60;99.90;;;;;;5112826;28;20047;-66
2023/09/26 03:28:37;;;;;;;7.53;5.35;;;13.60;99.90;;;;;;5094503;28;20104;-66
2023/09/26 03:31:04;;;;;;;7.90;5.55;;;13.60;99.90;;;;;;5094077;28;20051;-66
2023/09/26 03:33:32;;;;;;;7.07;5.78;;;13.60;99.90;;;;;;5094536;28;20052;-66
2023/09/26 03:35:59;;;;;;;8.45;5.65;;;13.50;99.90;;;;;;5093912;28;20050;-65
2023/09/26 03:38:26;;;;;;;8.45;5.40;;;13.50;99.90;;;;;;5091839;28;20556;-66
2023/09/26 03:40:57;;;;;;;9.00;5.53;;;13.50;99.90;;;;;;5094511;28;20051;-65
2023/09/26 03:43:26;;;;;;;6.60;5.45;;;13.50;99.90;;;;;;5095237;28;20081;-65
2023/09/26 03:45:54;;;;;;;11.65;6.90;;;13.50;99.90;;;;;;5094240;28;20044;-65
2023/09/26 03:48:21;;;;;;;8.77;6.88;;;13.50;99.90;;;;;;5094259;28;20051;-64
2023/09/26 03:50:49;;;;;;;8.80;5.47;;;13.50;99.90;;;;;;5099970;28;20043;-65
2023/09/26 03:53:16;;;;;;;8.52;6.05;;;13.50;99.90;;;;;;5089000;28;20056;-65
2023/09/26 03:55:43;;;;;;;8.10;6.60;;;13.50;99.90;;;;;;5086551;28;20043;-65
2023/09/26 03:58:10;;;;;;;8.70;5.85;;;13.60;99.90;;;;;;5090421;28;20126;-65
2023/09/26 04:00:38;;;;;;;15.02;6.63;;;13.60;99.90;;;;;;5090314;28;20395;-65
2023/09/26 04:03:05;;;;;;;9.07;5.80;;;13.60;99.90;;;;;;5090272;28;20054;-65
2023/09/26 04:05:32;;;;;;;7.47;5.43;;;13.70;99.90;;;;;;5105723;28;20056;-65
2023/09/26 04:07:59;;;;;;;11.18;6.15;;;13.70;99.90;;;;;;5090737;28;20043;-65
2023/09/26 04:10:26;;;;;;;15.07;6.88;;;13.90;99.90;;;;;;5090531;28;20059;-65
2023/09/26 04:12:53;;;;;;;7.70;6.28;;;13.80;99.90;;;;;;5108664;28;20403;-65
2023/09/26 04:15:20;;;;;;;12.02;6.40;;;13.80;99.90;;;;;;5092687;28;20050;-65
2023/09/26 04:17:48;;;;;;;9.63;6.97;;;13.70;99.90;;;;;;5106811;28;20084;-65
2023/09/26 04:20:19;;;;;;;8.57;7.10;;;13.90;99.90;;;;;;5110527;28;20124;-65
2023/09/26 04:22:47;;;;;;;10.07;6.70;;;13.80;99.90;;;;;;5086618;28;20501;-65
2023/09/26 04:25:14;;;;;;;10.82;6.88;;;13.80;99.90;;;;;;5091746;28;20088;-65
2023/09/26 04:27:41;;;;;;;10.32;6.93;;;13.90;99.90;;;;;;5089146;28;20445;-65
2023/09/26 04:30:12;;;;;;;9.52;6.00;;;13.80;99.90;;;;;;5092606;28;20051;-65
2023/09/26 04:32:38;;;;;;;12.15;6.93;;;13.80;99.90;;;;;;5086814;28;20047;-65
2023/09/26 04:35:08;;;;;;;10.35;7.85;;;13.80;99.90;;;;;;5092866;28;20040;-66
2023/09/26 04:37:35;;;;;;;10.30;6.57;;;13.90;99.90;;;;;;5082809;28;20109;-63
2023/09/26 04:40:04;;;;;;;14.15;8.18;;;13.90;99.90;;;;;;5086805;28;20047;-64
2023/09/26 04:42:32;;;;;;;11.95;7.97;;;14.00;99.90;;;;;;5089036;28;20059;-64
2023/09/26 04:44:59;;;;;;;10.50;7.70;;;14.00;99.90;;;;;;5090427;28;20051;-64
2023/09/26 04:47:26;;;;;;;11.35;7.32;;;14.00;99.90;;;;;;5108019;28;20043;-65
2023/09/26 04:49:53;;;;;;;12.13;7.70;;;14.00;99.90;;;;;;5087205;28;20475;-65
2023/09/26 04:52:21;;;;;;;10.27;7.80;;;14.00;99.90;;;;;;5093866;28;20044;-64
2023/09/26 04:54:50;;;;;;;13.40;7.50;;;14.10;99.90;;;;;;5093001;28;20044;-64
2023/09/26 04:57:17;;;;;;;14.60;7.47;;;14.10;99.90;;;;;;5094882;28;20063;-63
2023/09/26 04:59:44;;;;;;;8.50;7.22;;;14.10;99.90;;;;;;5088686;28;20047;-63
2023/09/26 05:02:11;;;;;;;11.55;7.65;;;14.20;99.90;;;;;;5091451;28;20052;-65
2023/09/26 05:04:40;;;;;;;10.82;7.05;;;14.20;99.90;;;;;;5094725;28;20040;-65
2023/09/26 05:07:07;;;;;;;11.30;6.97;;;14.20;99.90;;;;;;5093244;28;20051;-65
2023/09/26 05:09:35;;;;;;;10.05;6.97;;;14.30;99.90;;;;;;5106391;28;20048;-65
2023/09/26 05:12:02;;;;;;;11.55;6.95;;;14.30;99.90;;;;;;5094166;28;20047;-66
2023/09/26 05:14:29;;;;;;;10.35;7.57;;;14.30;99.90;;;;;;5089634;28;20048;-66
2023/09/26 05:16:56;;;;;;;10.70;7.10;;;14.40;99.90;;;;;;5089781;28;20074;-65
2023/09/26 05:19:23;;;;;;;10.50;7.25;;;14.40;99.90;;;;;;5088629;28;20105;-66
2023/09/26 05:21:50;;;;;;;9.95;6.80;;;14.40;99.90;;;;;;5093929;28;20040;-66
2023/09/26 05:24:17;;;;;;;10.38;6.38;;;14.40;99.90;;;;;;5089976;28;20106;-66
2023/09/26 05:26:45;;;;;;;10.27;7.20;;;14.40;99.90;;;;;;5092939;28;20055;-64
2023/09/26 05:29:12;;;;;;;12.50;6.57;;;14.40;99.90;;;;;;5090244;28;20051;-66
2023/09/26 05:31:39;;;;;;;8.07;6.32;;;14.40;99.90;;;;;;5092146;28;20051;-66
2023/09/26 05:34:07;;;;;;;12.85;7.60;;;14.50;99.90;;;;;;5090348;28;20052;-65
2023/09/26 05:36:34;;;;;;;12.32;6.43;;;14.30;99.90;;;;;;5092580;28;20484;-64
2023/09/26 05:39:01;;;;;;;11.27;7.18;;;14.30;99.90;;;;;;5090265;28;20522;-64
2023/09/26 05:41:28;;;;;;;10.20;6.35;;;14.30;99.90;;;;;;5093348;28;20054;-64
2023/09/26 05:43:56;;;;;;;10.93;6.82;;;14.30;99.90;;;;;;5092797;28;20097;-64
2023/09/26 05:46:23;;;;;;;8.20;6.15;;;14.30;99.90;;;;;;5108983;28;20526;-64
2023/09/26 05:48:50;;;;;;;10.63;6.57;;;14.30;99.90;;;;;;5092471;28;20048;-64
2023/09/26 05:51:17;;;;;;;10.35;6.40;;;14.30;99.90;;;;;;5090022;28;20514;-66
2023/09/26 05:53:44;;;;;;;10.57;7.20;;;14.30;99.90;;;;;;5094661;28;20043;-66
2023/09/26 05:56:10;;;;;;;10.35;6.70;;;14.30;99.90;;;;;;5091224;28;20062;-65
2023/09/26 05:58:37;;;;;;;10.18;6.75;;;14.30;99.90;;;;;;5112543;28;20044;-66
2023/09/26 06:01:09;;;;;;;8.77;5.85;;;14.30;99.90;;;;;;5108335;28;20048;-65
2023/09/26 06:03:36;;;;;;;11.15;6.60;;;14.30;99.90;;;;;;5111276;28;20044;-66
2023/09/26 06:06:04;;;;;;;9.57;6.97;;;14.40;99.90;;;;;;5090757;28;20487;-65
2023/09/26 06:08:31;;;;;;;9.77;6.68;;;14.40;99.90;;;;;;5094883;28;20051;-66
2023/09/26 06:10:58;;;;;;;8.90;6.55;;;14.40;99.90;;;;;;5095212;28;20051;-66
2023/09/26 06:13:25;;;;;;;8.57;6.70;;;14.50;99.90;;;;;;5095135;28;20460;-66
2023/09/26 06:15:52;;;;;;;9.98;6.90;;;14.50;99.90;;;;;;5091250;28;20047;-66
2023/09/26 06:18:20;;;;;;;10.18;6.50;;;14.50;99.90;;;;;;5095099;28;20050;-66
2023/09/26 06:20:47;;;;;;;12.25;7.05;;;14.60;99.90;;;;;;5093608;28;20040;-66
2023/09/26 06:23:14;;;;;;;9.40;6.95;;;14.70;99.90;;;;;;5095540;28;20107;-66
2023/09/26 06:25:41;;;;;;;10.32;6.72;;;14.80;99.90;;;;;;5090716;28;20048;-66
2023/09/26 06:28:08;;;;;;;8.15;5.93;;;14.90;99.90;;;;;;5095498;28;20078;-66
2023/09/26 06:30:35;;;;;;;8.80;6.47;;;15.00;99.90;;;;;;5095379;28;20059;-66
2023/09/26 06:33:02;;;;;;;8.93;6.03;;;15.10;99.90;;;;;;5094944;28;20141;-66
2023/09/26 06:35:33;;;;;;;9.25;6.45;;;15.20;99.90;;;;;;5095377;28;20036;-66
2023/09/26 06:38:00;;;;;;;9.90;6.13;;;15.30;99.90;;;;;;5095437;28;20453;-66
2023/09/26 06:40:27;;;;;;;9.70;6.35;;;15.30;99.90;;;;;;5094748;28;20055;-66
2023/09/26 06:42:55;;;;;;;12.18;6.97;;;15.40;99.90;;;;;;5093134;28;20051;-66
2023/09/26 06:45:21;;;;;;;15.93;6.93;;;15.50;99.90;;;;;;5095205;28;20050;-64
2023/09/26 06:47:48;;;;;;;8.48;6.22;;;15.60;99.90;;;;;;5094630;28;20518;-66
2023/09/26 06:50:15;;;;;;;9.23;5.70;;;15.60;99.90;;;;;;5095154;28;20052;-66
2023/09/26 06:52:44;;;;;;;9.85;6.53;;;15.70;99.90;;;;;;5113421;28;20112;-66
2023/09/26 06:55:11;;;;;;;10.88;6.78;;;15.80;99.90;;;;;;5094354;28;20069;-66
2023/09/26 06:57:38;;;;;;;8.75;6.07;;;15.90;99.90;;;;;;5113109;28;20088;-66
2023/09/26 07:00:11;;;;;;;9.65;5.82;;;16.00;99.90;;;;;;5092024;28;20627;-66
2023/09/26 07:02:39;;;;;;;10.65;6.05;;;16.10;99.90;;;;;;5094561;28;20044;-65
2023/09/26 07:05:07;;;;;;;10.38;5.88;;;16.20;99.90;;;;;;5094740;28;20113;-65
2023/09/26 07:07:34;;;;;;;10.23;6.13;;;16.30;99.90;;;;;;5094230;28;20043;-65
2023/09/26 07:10:03;;;;;;;10.75;6.45;;;16.30;99.90;;;;;;5094506;28;20047;-66
2023/09/26 07:12:32;;;;;;;8.05;5.97;;;16.50;99.90;;;;;;5092588;28;20082;-65
2023/09/26 07:14:59;;;;;;;10.90;6.00;;;16.50;99.90;;;;;;5093441;28;20075;-65
2023/09/26 07:17:26;;;;;;;11.25;6.22;;;16.70;99.90;;;;;;5094696;28;20470;-65
2023/09/26 07:19:53;;;;;;;10.68;6.03;;;17.10;99.90;;;;;;5094669;28;20713;-64
2023/09/26 07:22:20;;;;;;;10.98;6.35;;;17.60;99.90;;;;;;5094182;28;20055;-65
2023/09/26 07:24:49;;;;;;;14.07;6.35;;;17.90;99.90;;;;;;5094493;28;20133;-65
2023/09/26 07:27:18;;;;;;;9.32;5.88;;;18.20;99.90;;;;;;5094446;28;20059;-65
2023/09/26 07:29:46;;;;;;;8.02;5.50;;;18.40;99.90;;;;;;5091684;28;20548;-65
2023/09/26 07:32:14;;;;;;;11.30;5.63;;;18.40;99.90;;;;;;5094442;28;20690;-64
2023/09/26 07:34:41;;;;;;;8.80;6.28;;;18.40;99.90;;;;;;5094335;28;20135;-65
2023/09/26 07:37:08;;;;;;;9.50;6.30;;;18.40;99.90;;;;;;5093880;28;20048;-64
2023/09/26 07:39:35;;;;;;;8.88;5.60;;;18.20;99.90;;;;;;5112387;28;20043;-64
2023/09/26 07:42:03;;;;;;;9.80;5.75;;;18.10;99.90;;;;;;5094332;28;20087;-64
2023/09/26 07:44:32;;;;;;;13.48;6.85;;;17.90;99.90;;;;;;5093684;28;20096;-64
2023/09/26 07:46:59;;;;;;;7.63;5.65;;;17.80;99.90;;;;;;5094148;28;20043;-65
2023/09/26 07:49:26;;;;;;;9.07;6.28;;;17.90;99.90;;;;;;5093216;28;20117;-64
2023/09/26 07:51:52;;;;;;;8.35;6.28;;;18.00;99.90;;;;;;5094255;28;20059;-66
2023/09/26 07:54:19;;;;;;;12.25;6.68;;;18.20;99.90;;;;;;5094036;28;20063;-66
2023/09/26 07:56:46;;;;;;;9.00;6.10;;;18.40;99.90;;;;;;5093536;28;20052;-65
2023/09/26 07:59:13;;;;;;;14.18;6.38;;;18.90;99.90;;;;;;5093937;28;20047;-66
2023/09/26 08:01:42;;;;;;;11.63;5.60;;;19.20;99.90;;;;;;5094023;28;20051;-66
2023/09/26 08:04:08;;;;;;;8.82;5.68;;;19.20;99.90;;;;;;5090959;28;20043;-65
2023/09/26 08:06:35;;;;;;;11.23;5.38;;;19.20;99.90;;;;;;5093914;28;20040;-65
2023/09/26 08:09:03;;;;;;;9.45;5.70;;;19.20;99.90;;;;;;5093987;28;20047;-65
2023/09/26 08:11:30;;;;;;;9.55;6.13;;;19.20;99.90;;;;;;5093540;28;20043;-64
2023/09/26 08:13:57;;;;;;;9.35;5.85;;;19.10;99.90;;;;;;5093623;28;20051;-64
2023/09/26 08:16:24;;;;;;;7.38;5.05;;;19.30;99.90;;;;;;5111941;28;20492;-65
2023/09/26 08:18:52;;;;;;;7.30;5.32;;;19.40;99.90;;;;;;5092710;28;20072;-66
2023/09/26 08:21:19;;;;;;;10.43;4.97;;;19.40;99.90;;;;;;5087817;28;20063;-66
2023/09/26 08:23:46;;;;;;;9.02;4.65;;;19.20;99.90;;;;;;5103982;28;20407;-66
2023/09/26 08:26:13;;;;;;;7.70;5.00;;;19.20;99.90;;;;;;5090814;28;20046;-66
2023/09/26 08:28:40;;;;;;;11.55;6.05;;;19.30;99.90;;;;;;5114440;28;20415;-66
2023/09/26 08:31:15;;;;;;;7.68;4.68;;;19.40;99.90;;;;;;5091747;28;20052;-66
2023/09/26 08:33:43;;;;;;;7.40;5.40;;;19.30;99.90;;;;;;5090590;28;20048;-67
2023/09/26 08:36:21;;;;;;;8.40;5.40;;;19.20;99.90;;;;;;5108291;28;20093;-66
2023/09/26 08:38:50;;;;;;;14.23;5.25;;;19.10;99.90;;;;;;5091196;28;20048;-66
2023/09/26 08:41:18;;;;;;;8.80;5.35;;;19.10;99.90;;;;;;5090510;28;20066;-66
2023/09/26 08:43:45;;;;;;;8.90;5.55;;;19.10;99.90;;;;;;5093806;28;20090;-67
2023/09/26 08:46:13;;;;;;;8.38;5.25;;;19.00;99.90;;;;;;5092574;28;20044;-66
2023/09/26 08:48:40;;;;;;;8.65;5.57;;;19.10;99.90;;;;;;5097278;28;20054;-66
2023/09/26 08:51:07;;;;;;;9.82;5.60;;;19.20;99.90;;;;;;5094772;28;20063;-66
2023/09/26 08:53:36;;;;;;;10.15;5.68;;;19.40;99.90;;;;;;5090752;28;20062;-66
2023/09/26 08:56:03;;;;;;;10.38;5.82;;;19.80;99.90;;;;;;5096244;28;20051;-66
2023/09/26 08:58:32;;;;;;;15.18;6.47;;;20.10;99.90;;;;;;5115672;28;20051;-66
2023/09/26 09:00:59;;;;;;;6.85;5.43;;;20.30;99.90;;;;;;5114289;28;20400;-66
2023/09/26 09:03:26;;;;;;;8.90;5.63;;;20.40;99.90;;;;;;5097067;28;20055;-67
2023/09/26 09:05:53;;;;;;;9.25;5.15;;;20.50;99.90;;;;;;5096584;28;20503;-67
2023/09/26 09:08:21;;;;;;;9.27;5.50;;;20.80;99.90;;;;;;5096550;28;20056;-66
2023/09/26 09:10:51;;;;;;;9.70;5.40;;;21.60;99.90;;;;;;5097055;28;20047;-66
2023/09/26 09:13:28;;;;;;;8.90;5.22;;;22.40;99.90;;;;;;5096763;28;20055;-67
2023/09/26 09:16:09;;;;;;;7.18;4.80;;;22.90;99.90;;;;;;5096273;28;20044;-67
2023/09/26 09:18:36;;;;;;;9.45;4.70;;;23.10;99.90;;;;;;5097052;28;20051;-66
2023/09/26 09:21:21;;;;;;;9.63;5.03;;;23.20;99.90;;;;;;5096502;28;20100;-67
2023/09/26 09:23:48;;;;;;;12.88;4.97;;;23.80;99.80;;;;;;5096933;28;20044;-67
2023/09/26 09:26:17;;;;;;;9.65;4.38;;;24.30;99.90;;;;;;5096718;28;20044;-67
2023/09/26 09:28:44;;;;;;;8.30;4.60;;;24.90;99.50;;;;;;5114609;28;20372;-67
2023/09/26 09:31:13;;;;;;;8.75;4.13;;;24.60;99.00;;;;;;5114614;28;20039;-67
2023/09/26 09:33:45;;;;;;;7.13;4.63;;;24.30;98.90;;;;;;5094957;28;20490;-67
2023/09/26 09:36:12;;;;;;;9.70;5.00;;;23.80;99.30;;;;;;5095405;28;20464;-67
2023/09/26 09:38:39;;;;;;;6.82;4.60;;;23.30;99.90;;;;;;5114842;28;20376;-67
2023/09/26 09:41:07;;;;;;;14.60;5.13;;;23.10;99.90;;;;;;5096248;28;20287;-65
2023/09/26 09:43:35;;;;;;;11.93;4.72;;;23.30;99.90;;;;;;5095715;28;20055;-66
2023/09/26 09:46:06;;;;;;;9.27;5.43;;;23.60;99.90;;;;;;5094930;28;20067;-66
2023/09/26 09:48:40;;;;;;;8.18;4.63;;;23.90;99.30;;;;;;5096707;28;20093;-66
2023/09/26 09:51:10;;;;;;;9.35;4.32;;;24.50;98.10;;;;;;5095264;28;20564;-66
2023/09/26 09:53:38;;;;;;;10.60;4.87;;;25.20;97.60;;;;;;5096030;28;20052;-67
2023/09/26 09:56:07;;;;;;;8.43;4.68;;;25.80;97.30;;;;;;5095672;28;20321;-66
2023/09/26 09:58:40;;;;;;;6.72;4.28;;;26.00;95.10;;;;;;5096143;28;20230;-67
2023/09/26 10:01:08;;;;;;;8.40;4.30;;;26.60;94.90;;;;;;5080563;28;20075;-67
2023/09/26 10:03:36;;;;;;;7.53;4.13;;;26.30;95.00;;;;;;5087093;28;20643;-67
2023/09/26 10:06:08;;;;;;;9.57;4.30;;;26.20;95.20;;;;;;5091113;28;20039;-66
2023/09/26 10:08:37;;;;;;;8.70;4.28;;;25.90;95.10;;;;;;5087877;28;20081;-66
2023/09/26 10:11:06;;;;;;;6.28;4.13;;;25.70;95.30;;;;;;5108488;28;20051;-66
2023/09/26 10:13:33;;;;;;;6.55;4.50;;;25.70;95.10;;;;;;5092206;28;20051;-66
2023/09/26 10:16:07;;;;;;;8.25;4.15;;;25.90;94.90;;;;;;5092799;28;20044;-66
2023/09/26 10:18:38;;;;;;;7.65;4.38;;;26.10;93.90;;;;;;5089086;28;20059;-67
2023/09/26 10:21:19;;;;;;;7.07;4.75;;;26.80;94.10;;;;;;5094987;28;20161;-66
2023/09/26 10:24:22;;;;;;;7.47;3.95;;;27.30;93.50;;;;;;5106319;28;20484;-67
2023/09/26 10:26:50;;;;;;;6.68;3.83;;;27.50;92.50;;;;;;5093141;28;20118;-67
2023/09/26 10:29:23;;;;;;;7.18;4.53;;;27.50;92.80;;;;;;5089878;28;20066;-66
2023/09/26 10:31:55;;;;;;;10.35;4.45;;;27.30;91.30;;;;;;5090062;28;20059;-66
2023/09/26 10:34:28;;;;;;;7.78;4.05;;;27.50;92.20;;;;;;5091374;28;20047;-67
2023/09/26 10:36:55;;;;;;;8.75;3.85;;;27.60;91.00;;;;;;5091649;28;20482;-66
2023/09/26 10:39:34;;;;;;;10.30;3.97;;;27.30;91.80;;;;;;5090394;28;20453;-65
2023/09/26 10:42:08;;;;;;;8.03;3.47;;;27.00;91.10;;;;;;5089458;28;20048;-66
2023/09/26 10:44:35;;;;;;;6.65;3.55;;;26.50;92.20;;;;;;5094378;28;20321;-67
2023/09/26 10:47:04;;;;;;;6.13;3.80;;;25.90;92.90;;;;;;5092268;28;20043;-65
2023/09/26 10:49:32;;;;;;;8.17;3.23;;;25.90;92.70;;;;;;5093043;28;20047;-65
2023/09/26 10:52:00;;;;;;;5.50;3.20;;;25.90;92.90;;;;;;5094191;28;20075;-65
2023/09/26 10:54:29;;;;;;;9.25;3.20;;;26.10;92.80;;;;;;5094888;28;20081;-65
2023/09/26 10:56:58;;;;;;;6.38;3.45;;;26.10;92.60;;;;;;5108679;28;20134;-65
2023/09/26 10:59:27;;;;;;;7.40;3.55;;;26.00;92.70;;;;;;5093287;28;20415;-65
2023/09/26 11:01:56;;;;;;;7.60;3.67;;;25.80;92.40;;;;;;5095029;28;20495;-65
2023/09/26 11:04:27;;;;;;;7.45;3.35;;;25.80;92.60;;;;;;5093932;28;20047;-65
2023/09/26 11:06:55;;;;;;;6.47;3.95;;;25.60;92.50;;;;;;5093388;28;20055;-65
2023/09/26 11:09:22;;;;;;;5.78;2.95;;;25.60;93.00;;;;;;5113055;28;20044;-65
2023/09/26 11:11:49;;;;;;;6.82;3.33;;;25.30;92.80;;;;;;5112832;28;20107;-65
2023/09/26 11:14:17;;;;;;;5.32;3.00;;;25.20;93.20;;;;;;5094296;28;20058;-65
2023/09/26 11:16:44;;;;;;;5.35;2.67;;;25.00;93.40;;;;;;5094633;28;20039;-66
2023/09/26 11:19:11;;;;;;;4.18;2.97;;;24.80;93.90;;;;;;5095044;28;20115;-66
2023/09/26 11:21:39;;;;;;;5.28;2.85;;;24.50;94.00;;;;;;5092030;28;20066;-64
2023/09/26 11:24:19;;;;;;;5.38;2.95;;;24.20;94.50;;;;;;5094594;28;20047;-65
2023/09/26 11:26:48;;;;;;;8.52;3.17;;;24.10;95.10;;;;;;5094172;28;20044;-65
2023/09/26 11:29:16;;;;;;;5.65;3.15;;;24.00;95.60;;;;;;5094051;28;20058;-65
2023/09/26 11:31:44;;;;;;;8.85;3.30;;;24.20;96.00;;;;;;5096132;28;20043;-65
2023/09/26 11:34:11;;;;;;;6.22;3.60;;;24.30;96.10;;;;;;5094046;28;20108;-64
2023/09/26 11:36:40;;;;;;;5.97;3.10;;;24.30;96.30;;;;;;5091921;27;20047;-64
2023/09/26 11:39:08;;;;;;;5.43;3.37;;;24.10;96.40;;;;;;5093681;28;20055;-64
2023/09/26 11:41:35;;;;;;;7.45;3.28;;;24.10;96.40;;;;;;5093775;28;20043;-64
2023/09/26 11:44:10;;;;;;;5.93;2.33;;;24.00;96.10;;;;;;5094196;28;20048;-65
2023/09/26 11:46:43;;;;;;;6.40;3.55;;;24.10;94.50;;;;;;5093771;28;20075;-65
2023/09/26 11:49:10;;;;;;;4.93;2.85;;;24.10;94.60;;;;;;5093441;28;20112;-65
2023/09/26 11:51:37;;;;;;;5.68;3.15;;;23.90;94.10;;;;;;5094143;28;20050;-65
2023/09/26 11:54:06;;;;;;;4.55;2.67;;;23.90;94.40;;;;;;5093260;28;20139;-65
2023/09/26 11:56:33;;;;;;;3.80;2.53;;;23.90;94.40;;;;;;5093222;28;20403;-64
2023/09/26 11:59:01;;;;;;;6.18;2.83;;;24.00;94.50;;;;;;5093664;28;20134;-64
2023/09/26 12:01:28;;;;;;;5.97;2.72;;;23.90;94.10;;;;;;5093840;28;20491;-65
2023/09/26 12:03:56;;;;;;;5.82;2.70;;;23.80;94.40;;;;;;5093180;28;20109;-64
2023/09/26 12:06:24;;;;;;;3.75;2.90;;;23.80;94.60;;;;;;5091586;28;20108;-64
2023/09/26 12:08:51;;;;;;;4.82;2.95;;;24.00;94.50;;;;;;5093770;28;20050;-64
2023/09/26 12:11:19;;;;;;;4.22;2.80;;;24.30;94.40;;;;;;5092053;28;20060;-65
2023/09/26 12:13:46;;;;;;;5.43;3.53;;;24.90;94.10;;;;;;5093566;28;20048;-65
2023/09/26 12:16:13;;;;;;;5.93;3.25;;;25.40;93.40;;;;;;5093944;28;20059;-65
2023/09/26 12:18:40;;;;;;;6.85;3.30;;;25.60;93.20;;;;;;5093388;28;20051;-65
2023/09/26 12:21:07;;;;;;;7.38;3.15;;;26.00;93.20;;;;;;5094039;28;20048;-65
2023/09/26 12:23:34;;;;;;;5.43;3.35;;;26.50;93.00;;;;;;5093702;28;20051;-65
2023/09/26 12:26:01;;;;;;;6.93;3.45;;;27.00;91.90;;;;;;5093559;28;20052;-65
2023/09/26 12:28:29;;;;;;;8.38;3.30;;;27.30;91.40;;;;;;5091518;28;20051;-64
2023/09/26 12:30:56;;;;;;;5.88;3.30;;;27.60;91.10;;;;;;5092797;28;20051;-64
2023/09/26 12:33:23;;;;;;;11.52;3.33;;;28.10;90.80;;;;;;5094046;28;20056;-65
2023/09/26 12:35:50;;;;;;;6.15;2.72;;;28.00;90.40;;;;;;5093291;28;20058;-65
2023/09/26 12:38:17;;;;;;;4.63;2.70;;;27.80;90.50;;;;;;5111229;28;20044;-64
2023/09/26 12:40:44;;;;;;;4.45;2.90;;;27.90;90.60;;;;;;5093882;28;20073;-65
2023/09/26 12:43:11;;;;;;;5.75;3.20;;;28.20;90.50;;;;;;5093703;28;20047;-64
2023/09/26 12:45:40;;;;;;;5.32;2.95;;;28.10;90.30;;;;;;5094577;28;20058;-64
2023/09/26 12:48:07;;;;;;;7.20;3.17;;;28.20;90.50;;;;;;5111529;28;20050;-64